createdAt,value
2019-04-21T00:01:16.538Z,29.10
2019-04-21T00:03:51.284Z,29.10
2019-04-21T00:06:39.809Z,29.00
2019-04-21T00:09:11.397Z,28.90
2019-04-21T00:11:36.261Z,28.90
2019-04-21T00:14:03.328Z,28.90
2019-04-21T00:16:17.171Z,28.80
2019-04-21T00:18:54.854Z,28.80
2019-04-21T00:21:26.891Z,28.80
2019-04-21T00:24:06.228Z,28.80
2019-04-21T00:26:42.511Z,28.70
2019-04-21T00:29:09.650Z,28.70
2019-04-21T00:31:36.679Z,28.60
2019-04-21T00:33:50.159Z,28.50
2019-04-21T00:36:27.420Z,28.50
2019-04-21T00:39:20.675Z,28.50
2019-04-21T00:41:43.722Z,28.50
2019-04-21T00:44:04.540Z,28.40
2019-04-21T00:46:36.296Z,28.40
2019-04-21T00:49:09.516Z,28.40
2019-04-21T00:51:54.129Z,28.40
2019-04-21T00:54:19.643Z,28.30
2019-04-21T00:56:52.644Z,28.30
2019-04-21T00:59:13.956Z,28.20
2019-04-21T01:01:44.276Z,28.20
2019-04-21T01:04:15.560Z,28.10
2019-04-21T01:06:48.465Z,28.10
2019-04-21T01:09:07.645Z,28.00
2019-04-21T01:11:44.830Z,28.00
2019-04-21T01:14:27.918Z,28.00
2019-04-21T01:16:46.119Z,27.90
2019-04-21T01:19:10.512Z,27.90
2019-04-21T01:21:23.663Z,27.90
2019-04-21T01:23:56.577Z,27.80
2019-04-21T01:26:33.804Z,27.70
2019-04-21T01:29:05.397Z,27.70
2019-04-21T01:31:36.661Z,27.70
2019-04-21T01:34:14.838Z,27.70
2019-04-21T01:36:38.690Z,27.70
2019-04-21T01:39:16.548Z,27.70
2019-04-21T01:41:45.042Z,27.60
2019-04-21T01:44:19.658Z,27.60
2019-04-21T01:46:42.802Z,27.60
2019-04-21T01:49:05.640Z,27.60
2019-04-21T01:52:03.272Z,27.60
2019-04-21T01:54:33.116Z,27.50
2019-04-21T01:56:57.014Z,27.50
2019-04-21T01:59:19.818Z,27.50
2019-04-21T02:02:02.412Z,27.40
2019-04-21T02:04:36.389Z,27.40
2019-04-21T02:07:02.853Z,27.40
2019-04-21T02:09:38.203Z,27.30
2019-04-21T02:12:10.109Z,27.30
2019-04-21T02:14:41.421Z,27.30
2019-04-21T02:17:10.326Z,27.30
2019-04-21T02:19:31.600Z,27.20
2019-04-21T02:21:59.570Z,27.20
2019-04-21T02:24:42.054Z,27.10
2019-04-21T02:27:30.913Z,27.20
2019-04-21T02:30:05.287Z,27.10
2019-04-21T02:35:12.366Z,27.00
2019-04-21T02:40:14.640Z,27.00
2019-04-21T02:42:46.451Z,27.00
2019-04-21T02:45:08.783Z,26.90
2019-04-21T02:47:59.553Z,26.90
2019-04-21T02:50:09.931Z,26.80
2019-04-21T02:52:46.309Z,26.80
2019-04-21T02:57:41.364Z,26.80
2019-04-21T03:00:26.790Z,26.80
2019-04-21T03:02:46.968Z,26.80
2019-04-21T03:05:28.803Z,26.80
2019-04-21T03:07:54.942Z,26.80
2019-04-21T03:10:32.378Z,26.80
2019-04-21T03:12:56.873Z,26.80
2019-04-21T03:15:31.708Z,26.70
2019-04-21T03:17:58.788Z,26.60
2019-04-21T03:20:23.799Z,26.60
2019-04-21T03:22:59.914Z,26.60
2019-04-21T03:25:39.093Z,26.50
2019-04-21T03:30:52.981Z,26.50
2019-04-21T03:33:29.756Z,26.40
2019-04-21T03:38:00.212Z,26.40
2019-04-21T03:40:22.395Z,26.40
2019-04-21T03:47:53.587Z,26.30
2019-04-21T03:50:29.677Z,26.30
2019-04-21T04:03:27.494Z,26.10
2019-04-21T04:05:49.504Z,26.10
2019-04-21T04:10:46.991Z,26.10
2019-04-21T04:13:20.476Z,26.00
2019-04-21T04:15:56.562Z,26.00
2019-04-21T04:18:17.595Z,26.10
2019-04-21T04:23:10.254Z,26.00
2019-04-21T04:25:43.286Z,26.00
2019-04-21T04:28:36.287Z,25.90
2019-04-21T04:33:22.795Z,25.80
2019-04-21T04:35:52.443Z,25.80
2019-04-21T04:38:32.630Z,25.70
2019-04-21T04:40:57.497Z,25.70
2019-04-21T04:48:24.116Z,25.60
2019-04-21T04:50:53.156Z,25.60
2019-04-21T04:58:40.439Z,25.50
2019-04-21T05:03:39.562Z,25.50
2019-04-21T05:06:10.400Z,25.50
2019-04-21T05:08:55.939Z,25.50
2019-04-21T05:11:23.429Z,25.40
2019-04-21T05:13:34.844Z,25.40
2019-04-21T05:16:20.542Z,25.40
2019-04-21T05:18:45.188Z,25.40
2019-04-21T05:21:18.996Z,25.40
2019-04-21T05:23:29.139Z,25.30
2019-04-21T05:25:51.247Z,25.30
2019-04-21T05:28:21.864Z,25.30
2019-04-21T05:31:21.643Z,25.20
2019-04-21T05:34:00.363Z,25.20
2019-04-21T05:36:30.238Z,25.20
2019-04-21T05:39:01.299Z,25.20
2019-04-21T05:41:21.873Z,25.10
2019-04-21T05:44:03.815Z,25.20
2019-04-21T05:46:32.394Z,25.10
2019-04-21T05:49:06.832Z,25.10
2019-04-21T05:51:30.555Z,25.10
2019-04-21T05:54:15.175Z,25.10
2019-04-21T05:56:36.588Z,25.10
2019-04-21T05:59:03.882Z,25.00
2019-04-21T06:01:39.428Z,25.00
2019-04-21T06:04:15.638Z,25.00
2019-04-21T06:06:41.037Z,25.00
2019-04-21T06:09:11.100Z,25.00
2019-04-21T06:11:35.969Z,24.90
2019-04-21T06:14:08.129Z,24.90
2019-04-21T06:16:44.150Z,24.90
2019-04-21T06:19:05.240Z,24.90
2019-04-21T06:21:35.950Z,24.90
2019-04-21T06:24:02.548Z,24.80
2019-04-21T06:26:53.771Z,24.80
2019-04-21T06:29:03.928Z,24.80
2019-04-21T06:32:02.280Z,24.80
2019-04-21T06:34:08.196Z,24.80
2019-04-21T06:37:01.654Z,24.80
2019-04-21T06:39:18.193Z,24.80
2019-04-21T06:41:53.042Z,24.80
2019-04-21T06:44:12.888Z,24.80
2019-04-21T06:46:39.306Z,24.80
2019-04-21T06:49:11.469Z,24.80
2019-04-21T06:51:54.576Z,24.70
2019-04-21T06:54:19.304Z,24.70
2019-04-21T06:59:09.533Z,24.70
2019-04-21T07:01:45.623Z,24.60
2019-04-21T07:04:20.299Z,24.70
2019-04-21T07:06:50.024Z,24.70
2019-04-21T07:09:20.373Z,24.70
2019-04-21T07:11:37.920Z,24.80
2019-04-21T07:14:21.088Z,24.80
2019-04-21T07:16:45.904Z,24.90
2019-04-21T07:21:41.332Z,25.20
2019-04-21T07:24:14.504Z,25.20
2019-04-21T07:26:42.736Z,25.40
2019-04-21T07:29:14.443Z,25.50
2019-04-21T07:31:47.035Z,25.50
2019-04-21T07:34:16.033Z,25.50
2019-04-21T07:36:50.910Z,25.50
2019-04-21T07:39:10.287Z,25.60
2019-04-21T07:41:42.167Z,25.60
2019-04-21T07:44:04.576Z,25.60
2019-04-21T07:46:37.231Z,25.70
2019-04-21T07:49:14.316Z,25.60
2019-04-21T07:52:18.804Z,25.60
2019-04-21T07:54:44.568Z,25.60
2019-04-21T07:56:43.944Z,25.60
2019-04-21T07:59:41.115Z,25.60
2019-04-21T08:02:20.340Z,25.60
2019-04-21T08:04:56.033Z,25.60
2019-04-21T08:06:55.430Z,25.60
2019-04-21T08:09:31.909Z,25.60
2019-04-21T08:11:51.768Z,25.60
2019-04-21T08:14:33.670Z,25.60
2019-04-21T08:19:31.038Z,25.60
2019-04-21T08:22:05.463Z,25.60
2019-04-21T08:24:31.539Z,25.50
2019-04-21T08:27:07.882Z,25.60
2019-04-21T08:29:38.062Z,25.50
2019-04-21T08:32:07.825Z,25.50
2019-04-21T08:34:38.418Z,25.50
2019-04-21T08:36:57.493Z,25.50
2019-04-21T08:39:37.931Z,25.50
2019-04-21T08:42:01.978Z,25.50
2019-04-21T08:44:38.068Z,25.50
2019-04-21T08:47:07.698Z,25.50
2019-04-21T08:49:26.782Z,25.40
2019-04-21T08:52:16.741Z,25.40
2019-04-21T08:54:32.279Z,25.40
2019-04-21T08:57:28.969Z,25.40
2019-04-21T08:59:58.675Z,25.40
2019-04-21T09:02:35.150Z,25.40
2019-04-21T09:04:58.698Z,25.30
2019-04-21T09:07:32.161Z,25.40
2019-04-21T09:10:00.857Z,25.40
2019-04-21T09:12:32.785Z,25.40
2019-04-21T09:15:00.419Z,25.30
2019-04-21T09:17:25.056Z,25.30
2019-04-21T09:20:10.717Z,25.30
2019-04-21T09:22:29.821Z,25.30
2019-04-21T09:24:59.663Z,25.20
2019-04-21T09:27:27.662Z,25.20
2019-04-21T09:29:46.739Z,25.20
2019-04-21T09:32:18.232Z,25.20
2019-04-21T09:34:45.248Z,25.20
2019-04-21T09:37:26.885Z,25.20
2019-04-21T09:39:48.076Z,25.20
2019-04-21T09:42:13.839Z,25.20
2019-04-21T09:44:45.772Z,25.20
2019-04-21T09:47:15.836Z,25.20
2019-04-21T09:49:43.304Z,25.20
2019-04-21T09:52:18.507Z,25.30
2019-04-21T09:54:54.781Z,25.20
2019-04-21T09:57:24.035Z,25.20
2019-04-21T09:59:47.624Z,25.20
2019-04-21T10:02:18.257Z,25.20
2019-04-21T10:04:42.477Z,25.20
2019-04-21T10:07:23.696Z,25.20
2019-04-21T10:09:41.282Z,25.20
2019-04-21T10:12:09.882Z,25.20
2019-04-21T10:14:38.764Z,25.20
2019-04-21T10:17:23.968Z,25.20
2019-04-21T10:19:52.884Z,25.20
2019-04-21T10:22:21.234Z,25.30
2019-04-21T10:24:52.162Z,25.20
2019-04-21T10:27:21.024Z,25.20
2019-04-21T10:29:50.560Z,25.20
2019-04-21T10:32:23.180Z,25.20
2019-04-21T10:34:49.918Z,25.10
2019-04-21T10:37:18.789Z,25.10
2019-04-21T10:39:47.572Z,25.10
2019-04-21T10:42:17.239Z,25.10
2019-04-21T10:44:45.970Z,25.20
2019-04-21T10:47:16.567Z,25.20
2019-04-21T10:49:44.977Z,25.20
2019-04-21T10:52:15.306Z,25.20
2019-04-21T10:55:07.298Z,25.20
2019-04-21T10:57:18.388Z,25.20
2019-04-21T10:59:50.415Z,25.20
2019-04-21T11:02:19.028Z,25.20
2019-04-21T11:04:48.955Z,25.20
2019-04-21T11:07:52.234Z,25.10
2019-04-21T11:10:07.856Z,25.10
2019-04-21T11:12:39.278Z,25.20
2019-04-21T11:15:07.283Z,25.20
2019-04-21T11:17:36.434Z,25.20
2019-04-21T11:20:05.235Z,25.20
2019-04-21T11:22:35.267Z,25.20
2019-04-21T11:25:05.569Z,25.20
2019-04-21T11:27:35.106Z,25.20
2019-04-21T11:30:05.376Z,25.10
2019-04-21T11:32:34.805Z,25.10
2019-04-21T11:35:05.214Z,25.20
2019-04-21T11:37:34.732Z,25.10
2019-04-21T11:40:07.168Z,25.10
2019-04-21T11:42:35.602Z,25.10
2019-04-21T11:45:06.298Z,25.10
2019-04-21T11:47:38.472Z,25.10
2019-04-21T11:50:07.504Z,25.10
2019-04-21T11:52:36.933Z,25.00
2019-04-21T11:55:06.821Z,25.00
2019-04-21T11:57:40.167Z,25.00
2019-04-21T12:00:06.047Z,25.00
2019-04-21T12:02:35.328Z,25.00
2019-04-21T12:05:05.495Z,25.00
2019-04-21T12:07:35.292Z,25.10
2019-04-21T12:10:05.763Z,25.00
2019-04-21T12:12:35.072Z,25.10
2019-04-21T12:15:06.088Z,25.00
2019-04-21T12:17:34.438Z,25.00
2019-04-21T12:20:03.322Z,25.00
2019-04-21T12:22:33.781Z,25.00
2019-04-21T12:25:02.964Z,25.00
2019-04-21T12:27:32.009Z,25.00
2019-04-21T12:30:01.901Z,25.00
2019-04-21T12:32:35.994Z,25.00
2019-04-21T12:35:06.116Z,25.00
2019-04-21T12:37:35.110Z,25.00
2019-04-21T12:40:04.076Z,25.10
2019-04-21T12:42:32.747Z,25.10
2019-04-21T12:45:01.455Z,25.10
2019-04-21T12:47:30.224Z,25.00
2019-04-21T12:49:59.082Z,25.10
2019-04-21T12:52:27.613Z,25.10
2019-04-21T12:54:55.874Z,25.10
2019-04-21T12:57:25.408Z,25.10
2019-04-21T12:59:54.928Z,25.10
2019-04-21T13:02:23.869Z,25.10
2019-04-21T13:04:53.009Z,25.10
2019-04-21T13:07:23.540Z,25.10
2019-04-21T13:09:52.648Z,25.10
2019-04-21T13:12:21.065Z,25.20
2019-04-21T13:14:49.651Z,25.20
2019-04-21T13:17:19.375Z,25.20
2019-04-21T13:19:47.744Z,25.20
2019-04-21T13:22:16.184Z,25.20
2019-04-21T13:24:44.588Z,25.30
2019-04-21T13:27:13.188Z,25.20
2019-04-21T13:29:41.939Z,25.30
2019-04-21T13:32:11.083Z,25.20
2019-04-21T13:34:40.409Z,25.30
2019-04-21T13:37:09.748Z,25.30
2019-04-21T13:40:09.959Z,25.30
2019-04-21T13:42:26.784Z,25.20
2019-04-21T13:44:48.718Z,25.20
2019-04-21T13:47:18.521Z,25.20
2019-04-21T13:49:47.596Z,25.20
2019-04-21T13:52:16.148Z,25.20
2019-04-21T13:54:45.570Z,25.20
2019-04-21T13:57:14.411Z,25.20
2019-04-21T13:59:44.385Z,25.20
2019-04-21T14:02:12.961Z,25.20
2019-04-21T14:04:41.464Z,25.10
2019-04-21T14:07:10.118Z,25.20
2019-04-21T14:09:48.952Z,25.20
2019-04-21T14:12:09.664Z,25.20
2019-04-21T14:14:38.648Z,25.20
2019-04-21T14:17:07.183Z,25.20
2019-04-21T14:19:37.275Z,25.20
2019-04-21T14:22:08.198Z,25.20
2019-04-21T14:24:37.097Z,25.20
2019-04-21T14:27:05.990Z,25.20
2019-04-21T14:29:35.486Z,25.20
2019-04-21T14:32:04.344Z,25.20
2019-04-21T14:34:32.643Z,25.20
2019-04-21T14:37:02.254Z,25.10
2019-04-21T14:39:32.246Z,25.20
2019-04-21T14:42:02.168Z,25.20
2019-04-21T14:44:31.081Z,25.20
2019-04-21T14:47:01.087Z,25.10
2019-04-21T14:49:35.273Z,25.20
2019-04-21T14:52:05.347Z,25.10
2019-04-21T14:54:36.455Z,25.20
2019-04-21T14:57:05.400Z,25.10
2019-04-21T14:59:35.049Z,25.20
2019-04-21T15:02:03.909Z,25.10
2019-04-21T15:04:33.766Z,25.20
2019-04-21T15:07:03.244Z,25.10
2019-04-21T15:09:34.243Z,25.10
2019-04-21T15:12:02.380Z,25.10
2019-04-21T15:14:31.894Z,25.10
2019-04-21T15:17:01.007Z,25.10
2019-04-21T15:19:30.476Z,25.10
2019-04-21T15:22:00.566Z,25.10
2019-04-21T15:24:30.218Z,25.10
2019-04-21T15:26:59.046Z,25.20
2019-04-21T15:29:28.814Z,25.20
2019-04-21T15:31:58.693Z,25.20
2019-04-21T15:34:27.474Z,25.20
2019-04-21T15:36:55.850Z,25.20
2019-04-21T15:39:25.441Z,25.20
2019-04-21T15:41:54.565Z,25.20
2019-04-21T15:44:24.740Z,25.20
2019-04-21T15:46:53.616Z,25.20
2019-04-21T15:49:23.106Z,25.20
2019-04-21T15:51:51.963Z,25.20
2019-04-21T15:54:20.756Z,25.20
2019-04-21T15:56:51.246Z,25.30
2019-04-21T15:59:22.183Z,25.30
2019-04-21T16:01:54.910Z,25.30
2019-04-21T16:04:23.172Z,25.30
2019-04-21T16:06:53.331Z,25.30
2019-04-21T16:09:25.279Z,25.30
2019-04-21T16:11:51.849Z,25.30
2019-04-21T16:14:20.694Z,25.30
2019-04-21T16:16:49.510Z,25.20
2019-04-21T16:19:18.679Z,25.20
2019-04-21T16:21:48.664Z,25.20
2019-04-21T16:24:18.276Z,25.20
2019-04-21T16:26:46.897Z,25.20
2019-04-21T16:29:15.555Z,25.20
2019-04-21T16:31:43.912Z,25.20
2019-04-21T16:34:13.647Z,25.10
2019-04-21T16:36:43.429Z,25.10
2019-04-21T16:39:11.914Z,25.10
2019-04-21T16:41:40.467Z,25.10
2019-04-21T16:44:09.438Z,25.10
2019-04-21T16:46:37.860Z,25.10
2019-04-21T16:49:07.562Z,25.00
2019-04-21T16:51:36.321Z,25.00
2019-04-21T16:54:06.296Z,25.00
2019-04-21T16:56:37.401Z,25.00
2019-04-21T16:59:14.556Z,25.00
2019-04-21T17:01:44.659Z,25.00
2019-04-21T17:04:13.100Z,25.00
2019-04-21T17:06:42.931Z,25.00
2019-04-21T17:09:12.542Z,25.00
2019-04-21T17:11:43.717Z,25.00
2019-04-21T17:14:28.520Z,25.00
2019-04-21T17:17:03.702Z,25.10
2019-04-21T17:19:20.221Z,25.10
2019-04-21T17:21:41.689Z,25.10
2019-04-21T17:24:10.539Z,25.10
2019-04-21T17:26:41.131Z,25.10
2019-04-21T17:29:10.268Z,25.10
2019-04-21T17:31:39.299Z,25.00
2019-04-21T17:34:13.841Z,25.00
2019-04-21T17:36:39.132Z,24.90
2019-04-21T17:39:08.942Z,24.90
2019-04-21T17:41:44.623Z,24.80
2019-04-21T17:44:08.742Z,24.80
2019-04-21T17:46:46.106Z,24.80
2019-04-21T17:49:08.567Z,24.70
2019-04-21T17:51:39.438Z,24.70
2019-04-21T17:54:17.414Z,24.70
2019-04-21T17:57:07.453Z,24.60
2019-04-21T17:59:44.699Z,24.60
2019-04-21T18:02:02.361Z,24.60
2019-04-21T18:04:31.167Z,24.60
2019-04-21T18:06:56.504Z,24.60
2019-04-21T18:09:46.939Z,24.50
2019-04-21T18:12:05.749Z,24.50
2019-04-21T18:14:16.190Z,24.50
2019-04-21T18:16:48.584Z,24.50
2019-04-21T18:19:19.399Z,24.40
2019-04-21T18:21:54.029Z,24.40
2019-04-21T18:24:22.571Z,24.40
2019-04-21T18:26:57.232Z,24.40
2019-04-21T18:29:23.606Z,24.30
2019-04-21T18:31:52.814Z,24.30
2019-04-21T18:34:44.302Z,24.30
2019-04-21T18:37:14.196Z,24.30
2019-04-21T18:39:52.702Z,24.30
2019-04-21T18:42:31.171Z,24.20
2019-04-21T18:45:40.404Z,24.20
2019-04-21T18:48:02.348Z,24.20
2019-04-21T18:50:45.993Z,24.10
2019-04-21T18:53:41.385Z,24.10
2019-04-21T18:55:59.993Z,24.10
2019-04-21T18:58:26.482Z,24.10
2019-04-21T19:01:04.507Z,24.10
2019-04-21T19:03:33.335Z,24.00
2019-04-21T19:06:01.755Z,24.00
2019-04-21T19:08:46.754Z,24.00
2019-04-21T19:11:14.974Z,24.00
2019-04-21T19:14:06.220Z,24.00
2019-04-21T19:16:41.583Z,24.00
2019-04-21T19:19:09.948Z,24.00
2019-04-21T19:21:20.595Z,24.00
2019-04-21T19:24:07.181Z,24.00
2019-04-21T19:26:29.798Z,23.90
2019-04-21T19:29:05.246Z,24.00
2019-04-21T19:31:31.575Z,23.90
2019-04-21T19:33:49.390Z,23.90
2019-04-21T19:36:07.788Z,23.90
2019-04-21T19:38:49.063Z,23.90
2019-04-21T19:41:24.648Z,23.90
2019-04-21T19:43:57.455Z,23.90
2019-04-21T19:46:23.672Z,23.90
2019-04-21T19:49:01.269Z,23.90
2019-04-21T19:51:22.029Z,23.80
2019-04-21T19:53:47.819Z,23.80
2019-04-21T19:56:07.910Z,23.80
2019-04-21T19:58:40.544Z,23.80
2019-04-21T20:01:07.472Z,23.80
2019-04-21T20:03:36.684Z,23.80
2019-04-21T20:06:14.853Z,23.80
2019-04-21T20:08:46.675Z,23.80
2019-04-21T20:11:26.709Z,23.80
2019-04-21T20:14:14.841Z,23.70
2019-04-21T20:16:23.081Z,23.70
2019-04-21T20:18:42.387Z,23.70
2019-04-21T20:21:05.966Z,23.70
2019-04-21T20:23:35.943Z,23.70
2019-04-21T20:26:06.474Z,23.70
2019-04-21T20:28:45.502Z,23.70
2019-04-21T20:31:23.339Z,23.70
2019-04-21T20:38:47.044Z,23.60
2019-04-21T20:41:25.693Z,23.60
2019-04-21T20:43:52.588Z,23.60
2019-04-21T20:46:24.634Z,23.60
2019-04-21T20:48:52.316Z,23.60
2019-04-21T20:51:24.030Z,23.60
2019-04-21T20:53:50.924Z,23.60
2019-04-21T20:56:15.623Z,23.60
2019-04-21T20:58:53.851Z,23.50
2019-04-21T21:03:50.554Z,23.50
2019-04-21T21:06:24.824Z,23.50
2019-04-21T21:08:49.905Z,23.50
2019-04-21T21:11:23.101Z,23.50
2019-04-21T21:13:53.678Z,23.50
2019-04-21T21:16:35.040Z,23.50
2019-04-21T21:19:03.754Z,23.50
2019-04-21T21:21:23.498Z,23.50
2019-04-21T21:23:53.505Z,23.40
2019-04-21T21:26:26.892Z,23.50
2019-04-21T21:28:49.908Z,23.40
2019-04-21T21:31:25.290Z,23.40
2019-04-21T21:36:28.612Z,23.40
2019-04-21T21:38:55.656Z,23.40
2019-04-21T21:41:17.600Z,23.40
2019-04-21T21:43:39.175Z,23.40
2019-04-21T21:46:24.929Z,23.40
2019-04-21T21:48:50.350Z,23.40
2019-04-21T21:51:18.004Z,23.30
2019-04-21T21:53:40.177Z,23.30
2019-04-21T21:56:09.023Z,23.30
2019-04-21T21:58:42.375Z,23.30
2019-04-21T22:01:09.861Z,23.30
2019-04-21T22:03:41.283Z,23.30
2019-04-21T22:06:13.663Z,23.30
2019-04-21T22:08:38.601Z,23.30
2019-04-21T22:11:08.871Z,23.30
2019-04-21T22:13:46.428Z,23.20
2019-04-21T22:16:12.422Z,23.30
2019-04-21T22:19:03.478Z,23.30
2019-04-21T22:21:18.798Z,23.30
2019-04-21T22:23:49.038Z,23.30
2019-04-21T22:26:09.273Z,23.30
2019-04-21T22:28:37.784Z,23.30
2019-04-21T22:31:15.069Z,23.30
2019-04-21T22:33:41.814Z,23.20
2019-04-21T22:36:23.301Z,23.20
2019-04-21T22:38:49.155Z,23.20
2019-04-21T22:41:19.301Z,23.20
2019-04-21T22:43:42.107Z,23.20
2019-04-21T22:46:10.250Z,23.20
2019-04-21T22:48:38.719Z,23.20
2019-04-21T22:51:18.667Z,23.20
2019-04-21T22:53:44.790Z,23.20
2019-04-21T22:56:14.895Z,23.20
2019-04-21T22:58:40.816Z,23.10
2019-04-21T23:01:09.636Z,23.10
2019-04-21T23:03:40.155Z,23.10
2019-04-21T23:06:16.307Z,23.10
2019-04-21T23:08:41.664Z,23.10
2019-04-21T23:11:11.891Z,23.10
2019-04-21T23:13:40.066Z,23.10
2019-04-21T23:16:09.732Z,23.00
2019-04-21T23:18:50.210Z,23.10
2019-04-21T23:21:20.907Z,23.10
2019-04-21T23:23:57.709Z,23.10
2019-04-21T23:26:29.105Z,23.10
2019-04-21T23:28:58.548Z,23.00
2019-04-21T23:31:29.170Z,23.10
2019-04-21T23:33:40.082Z,23.00
2019-04-21T23:36:15.619Z,23.00
2019-04-21T23:38:44.128Z,23.00
2019-04-21T23:41:11.225Z,22.90
2019-04-21T23:43:40.407Z,23.00
2019-04-21T23:46:18.013Z,23.00
2019-04-21T23:48:55.986Z,22.90
2019-04-21T23:51:23.042Z,22.90
2019-04-21T23:53:39.535Z,23.00
2019-04-21T23:56:07.890Z,23.00
2019-04-21T23:58:38.261Z,22.90
